Elysian, Minnesota
Current Conditions -  °F | °C
As of 11:15 AM on Thursday 18 Dec 2014 (Local Time) from KACQ Reporting Station
Light Snow Light Snow  
Wind Chill: 13°   Ceiling: 1400
Heat Index: 19°   Visibility: 4mi
Dew Point: 16°   Wind: 5mph
Humidity: 86%   Direction: 180°S
Pressure: 30.29"   Gusts: NA
Location:  44.2°N, 93.67°W
Report Text: KACQ 181715Z AUTO 18004KT 4SM -SN OVC014 M07/M09 A3029 RMK AO2
Loading
Personal Weather Stations






























Interactive Weather Map New forecast layout! Learn more

10-Day Weather Forecast

Advertisements
Track Severe Weather on mobile